sensor_id;sensor_type;location;lat;lon;timestamp;P1;durP1;ratioP1;P2;durP2;ratioP2
15216;SDS011;7711;46.634;14.318;2022-12-18T00:02:26;90.23;;;32.47;;
15216;SDS011;7711;46.634;14.318;2022-12-18T00:04:54;97.20;;;33.37;;
15216;SDS011;7711;46.634;14.318;2022-12-18T00:07:22;76.27;;;25.10;;
15216;SDS011;7711;46.634;14.318;2022-12-18T00:09:50;54.13;;;23.50;;
15216;SDS011;7711;46.634;14.318;2022-12-18T00:12:17;67.17;;;26.33;;
15216;SDS011;7711;46.634;14.318;2022-12-18T00:14:44;214.67;;;32.93;;
15216;SDS011;7711;46.634;14.318;2022-12-18T00:17:12;91.33;;;26.53;;
15216;SDS011;7711;46.634;14.318;2022-12-18T00:19:39;100.10;;;27.97;;
15216;SDS011;7711;46.634;14.318;2022-12-18T00:22:06;96.90;;;27.73;;
15216;SDS011;7711;46.634;14.318;2022-12-18T00:24:35;61.77;;;23.83;;
15216;SDS011;7711;46.634;14.318;2022-12-18T00:27:02;45.17;;;22.60;;
15216;SDS011;7711;46.634;14.318;2022-12-18T00:29:29;48.00;;;24.53;;
15216;SDS011;7711;46.634;14.318;2022-12-18T00:31:56;42.80;;;23.43;;
15216;SDS011;7711;46.634;14.318;2022-12-18T00:34:23;41.30;;;23.73;;
15216;SDS011;7711;46.634;14.318;2022-12-18T00:36:50;48.67;;;24.57;;
15216;SDS011;7711;46.634;14.318;2022-12-18T00:39:17;38.93;;;24.13;;
15216;SDS011;7711;46.634;14.318;2022-12-18T00:41:46;54.50;;;27.40;;
15216;SDS011;7711;46.634;14.318;2022-12-18T00:44:32;54.30;;;27.67;;
15216;SDS011;7711;46.634;14.318;2022-12-18T00:46:59;54.33;;;25.53;;
15216;SDS011;7711;46.634;14.318;2022-12-18T00:49:26;43.80;;;25.10;;
15216;SDS011;7711;46.634;14.318;2022-12-18T00:51:55;52.63;;;26.27;;
15216;SDS011;7711;46.634;14.318;2022-12-18T00:54:22;68.07;;;26.90;;
15216;SDS011;7711;46.634;14.318;2022-12-18T00:56:51;67.97;;;28.10;;
15216;SDS011;7711;46.634;14.318;2022-12-18T00:59:18;62.43;;;25.97;;
15216;SDS011;7711;46.634;14.318;2022-12-18T01:01:45;49.80;;;24.93;;
15216;SDS011;7711;46.634;14.318;2022-12-18T01:04:13;56.00;;;25.70;;
15216;SDS011;7711;46.634;14.318;2022-12-18T01:06:40;47.23;;;25.17;;
15216;SDS011;7711;46.634;14.318;2022-12-18T01:09:07;62.37;;;27.60;;
15216;SDS011;7711;46.634;14.318;2022-12-18T01:11:35;60.80;;;27.57;;
15216;SDS011;7711;46.634;14.318;2022-12-18T01:14:03;55.83;;;27.23;;
15216;SDS011;7711;46.634;14.318;2022-12-18T01:16:31;53.10;;;28.13;;
15216;SDS011;7711;46.634;14.318;2022-12-18T01:19:00;62.17;;;29.07;;
15216;SDS011;7711;46.634;14.318;2022-12-18T01:21:28;58.70;;;29.73;;
15216;SDS011;7711;46.634;14.318;2022-12-18T01:23:55;47.83;;;29.10;;
15216;SDS011;7711;46.634;14.318;2022-12-18T01:26:23;46.33;;;26.63;;
15216;SDS011;7711;46.634;14.318;2022-12-18T01:28:53;59.33;;;27.20;;
15216;SDS011;7711;46.634;14.318;2022-12-18T01:31:23;51.50;;;26.97;;
15216;SDS011;7711;46.634;14.318;2022-12-18T01:33:52;45.40;;;24.67;;
15216;SDS011;7711;46.634;14.318;2022-12-18T01:36:20;50.67;;;26.17;;
15216;SDS011;7711;46.634;14.318;2022-12-18T01:38:49;47.67;;;26.17;;
15216;SDS011;7711;46.634;14.318;2022-12-18T01:41:17;51.53;;;27.67;;
15216;SDS011;7711;46.634;14.318;2022-12-18T01:43:47;45.23;;;26.43;;
15216;SDS011;7711;46.634;14.318;2022-12-18T01:46:15;46.83;;;25.40;;
15216;SDS011;7711;46.634;14.318;2022-12-18T01:48:45;46.93;;;26.37;;
15216;SDS011;7711;46.634;14.318;2022-12-18T01:51:14;55.47;;;27.97;;
15216;SDS011;7711;46.634;14.318;2022-12-18T01:53:42;47.57;;;25.70;;
15216;SDS011;7711;46.634;14.318;2022-12-18T01:56:12;45.97;;;26.27;;
15216;SDS011;7711;46.634;14.318;2022-12-18T01:58:43;51.27;;;27.10;;
15216;SDS011;7711;46.634;14.318;2022-12-18T02:01:16;42.83;;;23.83;;
15216;SDS011;7711;46.634;14.318;2022-12-18T02:03:45;44.23;;;24.70;;
15216;SDS011;7711;46.634;14.318;2022-12-18T02:06:13;47.77;;;23.97;;
15216;SDS011;7711;46.634;14.318;2022-12-18T02:08:56;44.87;;;24.47;;
15216;SDS011;7711;46.634;14.318;2022-12-18T02:11:32;37.63;;;23.37;;
15216;SDS011;7711;46.634;14.318;2022-12-18T02:14:10;38.97;;;23.57;;
15216;SDS011;7711;46.634;14.318;2022-12-18T02:16:44;42.97;;;24.33;;
15216;SDS011;7711;46.634;14.318;2022-12-18T02:19:26;43.77;;;24.97;;
15216;SDS011;7711;46.634;14.318;2022-12-18T02:22:07;47.27;;;25.33;;
15216;SDS011;7711;46.634;14.318;2022-12-18T02:24:53;46.40;;;24.80;;
15216;SDS011;7711;46.634;14.318;2022-12-18T02:27:27;46.27;;;25.33;;
15216;SDS011;7711;46.634;14.318;2022-12-18T02:29:58;46.07;;;26.60;;
15216;SDS011;7711;46.634;14.318;2022-12-18T02:32:27;44.53;;;25.00;;
15216;SDS011;7711;46.634;14.318;2022-12-18T02:34:57;45.50;;;27.33;;
15216;SDS011;7711;46.634;14.318;2022-12-18T02:37:25;47.03;;;26.53;;
15216;SDS011;7711;46.634;14.318;2022-12-18T02:39:54;42.87;;;25.13;;
15216;SDS011;7711;46.634;14.318;2022-12-18T02:42:24;49.00;;;26.93;;
15216;SDS011;7711;46.634;14.318;2022-12-18T02:44:55;41.43;;;25.00;;
15216;SDS011;7711;46.634;14.318;2022-12-18T02:47:23;42.37;;;24.17;;
15216;SDS011;7711;46.634;14.318;2022-12-18T02:49:56;41.33;;;23.27;;
15216;SDS011;7711;46.634;14.318;2022-12-18T02:52:30;35.47;;;22.67;;
15216;SDS011;7711;46.634;14.318;2022-12-18T02:55:05;34.30;;;22.13;;
15216;SDS011;7711;46.634;14.318;2022-12-18T02:57:42;36.07;;;23.57;;
15216;SDS011;7711;46.634;14.318;2022-12-18T03:00:15;38.33;;;24.20;;
15216;SDS011;7711;46.634;14.318;2022-12-18T03:02:45;39.17;;;22.87;;
15216;SDS011;7711;46.634;14.318;2022-12-18T03:05:19;37.40;;;23.40;;
15216;SDS011;7711;46.634;14.318;2022-12-18T03:07:50;38.07;;;22.67;;
15216;SDS011;7711;46.634;14.318;2022-12-18T03:10:24;34.90;;;21.93;;
15216;SDS011;7711;46.634;14.318;2022-12-18T03:12:56;38.83;;;22.40;;
15216;SDS011;7711;46.634;14.318;2022-12-18T03:15:29;35.23;;;21.10;;
15216;SDS011;7711;46.634;14.318;2022-12-18T03:18:02;35.13;;;21.63;;
15216;SDS011;7711;46.634;14.318;2022-12-18T03:20:34;33.97;;;21.23;;
15216;SDS011;7711;46.634;14.318;2022-12-18T03:23:04;31.43;;;20.93;;
15216;SDS011;7711;46.634;14.318;2022-12-18T03:25:35;35.00;;;21.13;;
15216;SDS011;7711;46.634;14.318;2022-12-18T03:28:07;34.70;;;22.17;;
15216;SDS011;7711;46.634;14.318;2022-12-18T03:30:41;32.10;;;20.93;;
15216;SDS011;7711;46.634;14.318;2022-12-18T03:33:10;29.63;;;19.70;;
15216;SDS011;7711;46.634;14.318;2022-12-18T03:35:44;31.43;;;19.87;;
15216;SDS011;7711;46.634;14.318;2022-12-18T03:38:12;30.63;;;19.60;;
15216;SDS011;7711;46.634;14.318;2022-12-18T03:40:43;32.50;;;19.37;;
15216;SDS011;7711;46.634;14.318;2022-12-18T03:43:19;31.23;;;19.70;;
15216;SDS011;7711;46.634;14.318;2022-12-18T03:45:54;29.40;;;18.90;;
15216;SDS011;7711;46.634;14.318;2022-12-18T03:48:29;30.87;;;19.27;;
15216;SDS011;7711;46.634;14.318;2022-12-18T03:51:04;26.63;;;16.90;;
15216;SDS011;7711;46.634;14.318;2022-12-18T03:53:36;30.43;;;19.43;;
15216;SDS011;7711;46.634;14.318;2022-12-18T03:56:08;29.27;;;18.60;;
15216;SDS011;7711;46.634;14.318;2022-12-18T03:58:36;28.67;;;18.53;;
15216;SDS011;7711;46.634;14.318;2022-12-18T04:01:10;30.83;;;19.43;;
15216;SDS011;7711;46.634;14.318;2022-12-18T04:03:41;31.10;;;18.67;;
15216;SDS011;7711;46.634;14.318;2022-12-18T04:06:10;30.07;;;18.83;;
15216;SDS011;7711;46.634;14.318;2022-12-18T04:08:40;28.77;;;17.60;;
15216;SDS011;7711;46.634;14.318;2022-12-18T04:11:08;27.70;;;18.17;;
15216;SDS011;7711;46.634;14.318;2022-12-18T04:13:36;25.87;;;16.53;;
15216;SDS011;7711;46.634;14.318;2022-12-18T04:16:05;28.27;;;17.67;;
15216;SDS011;7711;46.634;14.318;2022-12-18T04:18:34;29.27;;;17.63;;
15216;SDS011;7711;46.634;14.318;2022-12-18T04:21:01;30.73;;;18.90;;
15216;SDS011;7711;46.634;14.318;2022-12-18T04:23:29;31.00;;;17.53;;
15216;SDS011;7711;46.634;14.318;2022-12-18T04:25:57;30.27;;;18.57;;
15216;SDS011;7711;46.634;14.318;2022-12-18T04:28:24;25.63;;;16.23;;
15216;SDS011;7711;46.634;14.318;2022-12-18T04:30:51;28.23;;;17.73;;
15216;SDS011;7711;46.634;14.318;2022-12-18T04:33:19;26.63;;;17.07;;
15216;SDS011;7711;46.634;14.318;2022-12-18T04:35:48;28.53;;;17.83;;
15216;SDS011;7711;46.634;14.318;2022-12-18T04:38:15;28.00;;;16.83;;
15216;SDS011;7711;46.634;14.318;2022-12-18T04:40:42;28.77;;;17.67;;
15216;SDS011;7711;46.634;14.318;2022-12-18T04:43:10;30.83;;;19.00;;
15216;SDS011;7711;46.634;14.318;2022-12-18T04:45:37;49.83;;;28.53;;
15216;SDS011;7711;46.634;14.318;2022-12-18T04:48:04;39.23;;;23.43;;
15216;SDS011;7711;46.634;14.318;2022-12-18T04:50:31;31.70;;;20.10;;
15216;SDS011;7711;46.634;14.318;2022-12-18T04:53:00;29.90;;;18.43;;
15216;SDS011;7711;46.634;14.318;2022-12-18T04:55:27;32.67;;;19.57;;
15216;SDS011;7711;46.634;14.318;2022-12-18T04:57:54;31.70;;;19.80;;
15216;SDS011;7711;46.634;14.318;2022-12-18T05:00:21;33.47;;;20.33;;
15216;SDS011;7711;46.634;14.318;2022-12-18T05:02:50;29.37;;;18.77;;
15216;SDS011;7711;46.634;14.318;2022-12-18T05:05:17;31.33;;;19.57;;
15216;SDS011;7711;46.634;14.318;2022-12-18T05:07:44;32.33;;;19.40;;
15216;SDS011;7711;46.634;14.318;2022-12-18T05:10:13;28.43;;;18.47;;
15216;SDS011;7711;46.634;14.318;2022-12-18T05:12:40;30.57;;;18.57;;
15216;SDS011;7711;46.634;14.318;2022-12-18T05:15:21;32.33;;;19.17;;
15216;SDS011;7711;46.634;14.318;2022-12-18T05:17:48;29.77;;;18.03;;
15216;SDS011;7711;46.634;14.318;2022-12-18T05:20:15;28.07;;;18.20;;
15216;SDS011;7711;46.634;14.318;2022-12-18T05:22:43;32.03;;;18.93;;
15216;SDS011;7711;46.634;14.318;2022-12-18T05:25:10;33.10;;;18.80;;
15216;SDS011;7711;46.634;14.318;2022-12-18T05:27:38;30.10;;;18.83;;
15216;SDS011;7711;46.634;14.318;2022-12-18T05:30:06;30.70;;;18.30;;
15216;SDS011;7711;46.634;14.318;2022-12-18T05:32:34;28.60;;;17.77;;
15216;SDS011;7711;46.634;14.318;2022-12-18T05:35:01;28.37;;;18.17;;
15216;SDS011;7711;46.634;14.318;2022-12-18T05:37:28;30.67;;;18.53;;
15216;SDS011;7711;46.634;14.318;2022-12-18T05:39:55;34.27;;;19.30;;
15216;SDS011;7711;46.634;14.318;2022-12-18T05:42:22;30.20;;;18.40;;
15216;SDS011;7711;46.634;14.318;2022-12-18T05:44:51;30.73;;;19.40;;
15216;SDS011;7711;46.634;14.318;2022-12-18T05:47:18;31.10;;;19.27;;
15216;SDS011;7711;46.634;14.318;2022-12-18T05:49:45;32.43;;;19.77;;
15216;SDS011;7711;46.634;14.318;2022-12-18T05:52:12;32.60;;;20.67;;
15216;SDS011;7711;46.634;14.318;2022-12-18T05:54:39;32.77;;;19.17;;
15216;SDS011;7711;46.634;14.318;2022-12-18T05:57:06;30.37;;;19.87;;
15216;SDS011;7711;46.634;14.318;2022-12-18T05:59:34;35.70;;;22.03;;
15216;SDS011;7711;46.634;14.318;2022-12-18T06:02:02;39.93;;;23.87;;
15216;SDS011;7711;46.634;14.318;2022-12-18T06:04:29;41.20;;;27.67;;
15216;SDS011;7711;46.634;14.318;2022-12-18T06:06:57;42.70;;;25.43;;
15216;SDS011;7711;46.634;14.318;2022-12-18T06:09:24;36.87;;;23.37;;
15216;SDS011;7711;46.634;14.318;2022-12-18T06:11:51;41.40;;;26.83;;
15216;SDS011;7711;46.634;14.318;2022-12-18T06:14:19;37.37;;;23.93;;
15216;SDS011;7711;46.634;14.318;2022-12-18T06:16:46;35.80;;;24.27;;
15216;SDS011;7711;46.634;14.318;2022-12-18T06:19:15;32.90;;;20.37;;
15216;SDS011;7711;46.634;14.318;2022-12-18T06:21:42;28.57;;;18.67;;
15216;SDS011;7711;46.634;14.318;2022-12-18T06:24:10;31.33;;;17.83;;
15216;SDS011;7711;46.634;14.318;2022-12-18T06:26:37;26.83;;;17.03;;
15216;SDS011;7711;46.634;14.318;2022-12-18T06:29:05;28.73;;;17.47;;
15216;SDS011;7711;46.634;14.318;2022-12-18T06:31:32;25.43;;;16.77;;
15216;SDS011;7711;46.634;14.318;2022-12-18T06:34:00;28.13;;;17.37;;
15216;SDS011;7711;46.634;14.318;2022-12-18T06:36:32;28.90;;;18.83;;
15216;SDS011;7711;46.634;14.318;2022-12-18T06:38:59;33.67;;;20.40;;
15216;SDS011;7711;46.634;14.318;2022-12-18T06:41:27;38.83;;;21.53;;
15216;SDS011;7711;46.634;14.318;2022-12-18T06:43:54;34.30;;;21.10;;
15216;SDS011;7711;46.634;14.318;2022-12-18T06:46:21;37.80;;;22.53;;
15216;SDS011;7711;46.634;14.318;2022-12-18T06:48:48;40.17;;;24.40;;
15216;SDS011;7711;46.634;14.318;2022-12-18T06:51:17;46.60;;;27.23;;
15216;SDS011;7711;46.634;14.318;2022-12-18T06:53:46;43.57;;;26.20;;
15216;SDS011;7711;46.634;14.318;2022-12-18T06:56:13;44.00;;;26.00;;
15216;SDS011;7711;46.634;14.318;2022-12-18T06:58:40;39.13;;;24.37;;
15216;SDS011;7711;46.634;14.318;2022-12-18T07:01:08;37.07;;;22.87;;
15216;SDS011;7711;46.634;14.318;2022-12-18T07:03:37;38.23;;;24.53;;
15216;SDS011;7711;46.634;14.318;2022-12-18T07:06:05;34.10;;;22.47;;
15216;SDS011;7711;46.634;14.318;2022-12-18T07:08:32;36.37;;;21.70;;
15216;SDS011;7711;46.634;14.318;2022-12-18T07:11:02;32.80;;;21.63;;
15216;SDS011;7711;46.634;14.318;2022-12-18T07:13:30;33.03;;;21.33;;
15216;SDS011;7711;46.634;14.318;2022-12-18T07:16:02;32.00;;;19.83;;
15216;SDS011;7711;46.634;14.318;2022-12-18T07:18:33;36.07;;;21.40;;
15216;SDS011;7711;46.634;14.318;2022-12-18T07:21:02;35.20;;;21.60;;
15216;SDS011;7711;46.634;14.318;2022-12-18T07:23:31;36.33;;;21.73;;
15216;SDS011;7711;46.634;14.318;2022-12-18T07:26:01;34.43;;;21.03;;
15216;SDS011;7711;46.634;14.318;2022-12-18T07:28:30;35.20;;;21.10;;
15216;SDS011;7711;46.634;14.318;2022-12-18T07:30:57;30.60;;;19.30;;
15216;SDS011;7711;46.634;14.318;2022-12-18T07:33:25;29.30;;;18.07;;
15216;SDS011;7711;46.634;14.318;2022-12-18T07:35:52;31.93;;;19.83;;
15216;SDS011;7711;46.634;14.318;2022-12-18T07:38:19;38.57;;;22.93;;
15216;SDS011;7711;46.634;14.318;2022-12-18T07:40:46;36.63;;;22.23;;
15216;SDS011;7711;46.634;14.318;2022-12-18T07:43:15;29.63;;;19.47;;
15216;SDS011;7711;46.634;14.318;2022-12-18T07:45:41;28.63;;;17.97;;
15216;SDS011;7711;46.634;14.318;2022-12-18T07:48:09;28.43;;;16.90;;
15216;SDS011;7711;46.634;14.318;2022-12-18T07:50:36;24.43;;;16.63;;
15216;SDS011;7711;46.634;14.318;2022-12-18T07:53:03;25.43;;;16.83;;
15216;SDS011;7711;46.634;14.318;2022-12-18T07:55:30;26.83;;;17.03;;
15216;SDS011;7711;46.634;14.318;2022-12-18T07:58:00;27.53;;;16.83;;
15216;SDS011;7711;46.634;14.318;2022-12-18T08:00:29;27.50;;;18.33;;
15216;SDS011;7711;46.634;14.318;2022-12-18T08:02:56;26.23;;;17.57;;
15216;SDS011;7711;46.634;14.318;2022-12-18T08:05:23;25.20;;;16.53;;
15216;SDS011;7711;46.634;14.318;2022-12-18T08:07:50;26.77;;;17.17;;
15216;SDS011;7711;46.634;14.318;2022-12-18T08:10:17;27.00;;;15.93;;
15216;SDS011;7711;46.634;14.318;2022-12-18T08:12:45;29.37;;;18.70;;
15216;SDS011;7711;46.634;14.318;2022-12-18T08:15:14;23.37;;;15.57;;
15216;SDS011;7711;46.634;14.318;2022-12-18T08:17:43;21.63;;;15.00;;
15216;SDS011;7711;46.634;14.318;2022-12-18T08:20:11;24.90;;;16.73;;
15216;SDS011;7711;46.634;14.318;2022-12-18T08:22:40;24.87;;;16.20;;
15216;SDS011;7711;46.634;14.318;2022-12-18T08:25:07;20.13;;;14.60;;
15216;SDS011;7711;46.634;14.318;2022-12-18T08:27:35;24.83;;;16.77;;
15216;SDS011;7711;46.634;14.318;2022-12-18T08:30:02;26.40;;;16.70;;
15216;SDS011;7711;46.634;14.318;2022-12-18T08:32:30;27.80;;;18.60;;
15216;SDS011;7711;46.634;14.318;2022-12-18T08:34:59;25.83;;;17.30;;
15216;SDS011;7711;46.634;14.318;2022-12-18T08:37:26;24.50;;;14.53;;
15216;SDS011;7711;46.634;14.318;2022-12-18T08:39:53;22.47;;;14.60;;
15216;SDS011;7711;46.634;14.318;2022-12-18T08:42:20;19.50;;;15.00;;
15216;SDS011;7711;46.634;14.318;2022-12-18T08:45:04;28.27;;;15.83;;
15216;SDS011;7711;46.634;14.318;2022-12-18T08:47:32;27.37;;;19.37;;
15216;SDS011;7711;46.634;14.318;2022-12-18T08:50:01;29.53;;;18.77;;
15216;SDS011;7711;46.634;14.318;2022-12-18T08:52:28;26.30;;;18.10;;
15216;SDS011;7711;46.634;14.318;2022-12-18T08:54:57;26.30;;;17.47;;
15216;SDS011;7711;46.634;14.318;2022-12-18T08:57:25;26.33;;;17.67;;
15216;SDS011;7711;46.634;14.318;2022-12-18T08:59:51;26.87;;;18.33;;
15216;SDS011;7711;46.634;14.318;2022-12-18T09:02:19;25.83;;;18.60;;
15216;SDS011;7711;46.634;14.318;2022-12-18T09:04:46;30.13;;;18.73;;
15216;SDS011;7711;46.634;14.318;2022-12-18T09:07:15;30.37;;;20.27;;
15216;SDS011;7711;46.634;14.318;2022-12-18T09:09:42;31.17;;;20.67;;
15216;SDS011;7711;46.634;14.318;2022-12-18T09:12:09;26.03;;;18.27;;
15216;SDS011;7711;46.634;14.318;2022-12-18T09:14:36;24.80;;;16.97;;
15216;SDS011;7711;46.634;14.318;2022-12-18T09:17:03;25.67;;;17.10;;
15216;SDS011;7711;46.634;14.318;2022-12-18T09:19:30;22.00;;;16.30;;
15216;SDS011;7711;46.634;14.318;2022-12-18T09:21:57;24.83;;;17.33;;
15216;SDS011;7711;46.634;14.318;2022-12-18T09:24:25;27.37;;;16.70;;
15216;SDS011;7711;46.634;14.318;2022-12-18T09:26:53;22.50;;;15.13;;
15216;SDS011;7711;46.634;14.318;2022-12-18T09:29:20;22.93;;;14.77;;
15216;SDS011;7711;46.634;14.318;2022-12-18T09:31:47;24.73;;;16.33;;
15216;SDS011;7711;46.634;14.318;2022-12-18T09:34:15;21.87;;;15.30;;
15216;SDS011;7711;46.634;14.318;2022-12-18T09:36:43;24.40;;;16.33;;
15216;SDS011;7711;46.634;14.318;2022-12-18T09:39:10;23.10;;;16.37;;
15216;SDS011;7711;46.634;14.318;2022-12-18T09:41:47;21.83;;;14.87;;
15216;SDS011;7711;46.634;14.318;2022-12-18T09:44:20;22.53;;;15.20;;
15216;SDS011;7711;46.634;14.318;2022-12-18T09:46:52;22.87;;;14.67;;
15216;SDS011;7711;46.634;14.318;2022-12-18T09:49:26;21.03;;;13.67;;
15216;SDS011;7711;46.634;14.318;2022-12-18T09:51:56;22.10;;;14.67;;
15216;SDS011;7711;46.634;14.318;2022-12-18T09:54:30;19.80;;;14.43;;
15216;SDS011;7711;46.634;14.318;2022-12-18T09:57:03;23.70;;;15.43;;
15216;SDS011;7711;46.634;14.318;2022-12-18T09:59:33;23.00;;;14.63;;
15216;SDS011;7711;46.634;14.318;2022-12-18T10:02:11;22.53;;;15.50;;
15216;SDS011;7711;46.634;14.318;2022-12-18T10:04:40;25.00;;;15.77;;
15216;SDS011;7711;46.634;14.318;2022-12-18T10:07:08;20.87;;;14.30;;
15216;SDS011;7711;46.634;14.318;2022-12-18T10:09:41;21.70;;;14.30;;
15216;SDS011;7711;46.634;14.318;2022-12-18T10:12:16;23.57;;;15.47;;
15216;SDS011;7711;46.634;14.318;2022-12-18T10:14:50;23.37;;;16.23;;
15216;SDS011;7711;46.634;14.318;2022-12-18T10:17:24;23.00;;;15.27;;
15216;SDS011;7711;46.634;14.318;2022-12-18T10:19:58;19.60;;;14.53;;
15216;SDS011;7711;46.634;14.318;2022-12-18T10:22:34;21.73;;;15.33;;
15216;SDS011;7711;46.634;14.318;2022-12-18T10:25:15;25.90;;;17.27;;
15216;SDS011;7711;46.634;14.318;2022-12-18T10:27:49;25.10;;;14.97;;
15216;SDS011;7711;46.634;14.318;2022-12-18T10:30:20;21.03;;;13.60;;
15216;SDS011;7711;46.634;14.318;2022-12-18T10:32:48;23.47;;;13.87;;
15216;SDS011;7711;46.634;14.318;2022-12-18T10:35:18;23.70;;;14.17;;
15216;SDS011;7711;46.634;14.318;2022-12-18T10:38:03;21.30;;;13.43;;
15216;SDS011;7711;46.634;14.318;2022-12-18T10:40:33;22.23;;;14.10;;
15216;SDS011;7711;46.634;14.318;2022-12-18T10:43:19;21.87;;;14.23;;
15216;SDS011;7711;46.634;14.318;2022-12-18T10:46:04;34.73;;;26.67;;
15216;SDS011;7711;46.634;14.318;2022-12-18T10:48:50;22.80;;;15.57;;
15216;SDS011;7711;46.634;14.318;2022-12-18T10:51:19;21.57;;;14.60;;
15216;SDS011;7711;46.634;14.318;2022-12-18T10:53:51;19.00;;;13.57;;
15216;SDS011;7711;46.634;14.318;2022-12-18T10:56:21;22.47;;;15.87;;
15216;SDS011;7711;46.634;14.318;2022-12-18T10:58:56;23.10;;;16.47;;
15216;SDS011;7711;46.634;14.318;2022-12-18T11:01:25;21.87;;;16.37;;
15216;SDS011;7711;46.634;14.318;2022-12-18T11:03:59;22.70;;;16.03;;
15216;SDS011;7711;46.634;14.318;2022-12-18T11:06:28;21.23;;;14.60;;
15216;SDS011;7711;46.634;14.318;2022-12-18T11:09:18;20.60;;;14.00;;
15216;SDS011;7711;46.634;14.318;2022-12-18T11:11:48;22.10;;;16.80;;
15216;SDS011;7711;46.634;14.318;2022-12-18T11:14:20;27.03;;;15.73;;
15216;SDS011;7711;46.634;14.318;2022-12-18T11:16:50;21.07;;;14.97;;
15216;SDS011;7711;46.634;14.318;2022-12-18T11:19:24;21.07;;;14.63;;
15216;SDS011;7711;46.634;14.318;2022-12-18T11:21:59;23.87;;;15.13;;
15216;SDS011;7711;46.634;14.318;2022-12-18T11:24:29;26.30;;;16.60;;
15216;SDS011;7711;46.634;14.318;2022-12-18T11:26:59;24.87;;;15.23;;
15216;SDS011;7711;46.634;14.318;2022-12-18T11:29:33;61.03;;;40.30;;
15216;SDS011;7711;46.634;14.318;2022-12-18T11:35:01;28.33;;;21.00;;
15216;SDS011;7711;46.634;14.318;2022-12-18T11:37:35;34.60;;;28.67;;
15216;SDS011;7711;46.634;14.318;2022-12-18T11:40:04;30.07;;;23.20;;
15216;SDS011;7711;46.634;14.318;2022-12-18T11:42:38;19.80;;;15.33;;
15216;SDS011;7711;46.634;14.318;2022-12-18T11:45:20;21.67;;;15.20;;
15216;SDS011;7711;46.634;14.318;2022-12-18T11:47:54;26.07;;;17.87;;
15216;SDS011;7711;46.634;14.318;2022-12-18T11:50:25;22.53;;;15.80;;
15216;SDS011;7711;46.634;14.318;2022-12-18T11:52:55;22.37;;;14.80;;
15216;SDS011;7711;46.634;14.318;2022-12-18T11:55:25;22.90;;;15.77;;
15216;SDS011;7711;46.634;14.318;2022-12-18T11:57:58;27.90;;;16.33;;
15216;SDS011;7711;46.634;14.318;2022-12-18T12:00:31;21.90;;;16.20;;
15216;SDS011;7711;46.634;14.318;2022-12-18T12:03:15;23.17;;;15.93;;
15216;SDS011;7711;46.634;14.318;2022-12-18T12:05:56;22.57;;;16.00;;
15216;SDS011;7711;46.634;14.318;2022-12-18T12:08:30;30.73;;;21.67;;
15216;SDS011;7711;46.634;14.318;2022-12-18T12:11:05;25.60;;;17.50;;
15216;SDS011;7711;46.634;14.318;2022-12-18T12:13:39;23.07;;;16.37;;
15216;SDS011;7711;46.634;14.318;2022-12-18T12:16:17;20.50;;;14.60;;
15216;SDS011;7711;46.634;14.318;2022-12-18T12:18:54;23.17;;;15.27;;
15216;SDS011;7711;46.634;14.318;2022-12-18T12:21:34;24.43;;;18.10;;
15216;SDS011;7711;46.634;14.318;2022-12-18T12:24:10;22.57;;;16.70;;
15216;SDS011;7711;46.634;14.318;2022-12-18T12:26:49;21.50;;;16.17;;
15216;SDS011;7711;46.634;14.318;2022-12-18T12:29:26;21.30;;;15.13;;
15216;SDS011;7711;46.634;14.318;2022-12-18T12:32:07;21.33;;;15.23;;
15216;SDS011;7711;46.634;14.318;2022-12-18T12:34:44;18.50;;;14.70;;
15216;SDS011;7711;46.634;14.318;2022-12-18T12:37:24;21.67;;;15.73;;
15216;SDS011;7711;46.634;14.318;2022-12-18T12:40:03;23.10;;;15.73;;
15216;SDS011;7711;46.634;14.318;2022-12-18T12:42:32;21.13;;;15.57;;
15216;SDS011;7711;46.634;14.318;2022-12-18T12:45:23;24.70;;;16.50;;
15216;SDS011;7711;46.634;14.318;2022-12-18T12:47:58;25.10;;;17.50;;
15216;SDS011;7711;46.634;14.318;2022-12-18T12:50:27;23.90;;;16.83;;
15216;SDS011;7711;46.634;14.318;2022-12-18T12:53:00;24.90;;;16.77;;
15216;SDS011;7711;46.634;14.318;2022-12-18T12:55:31;23.90;;;17.07;;
15216;SDS011;7711;46.634;14.318;2022-12-18T12:58:03;25.03;;;17.23;;
15216;SDS011;7711;46.634;14.318;2022-12-18T13:00:41;25.77;;;17.07;;
15216;SDS011;7711;46.634;14.318;2022-12-18T13:03:18;21.63;;;16.43;;
15216;SDS011;7711;46.634;14.318;2022-12-18T13:05:56;22.73;;;16.17;;
15216;SDS011;7711;46.634;14.318;2022-12-18T13:08:27;21.57;;;16.17;;
15216;SDS011;7711;46.634;14.318;2022-12-18T13:10:56;22.23;;;16.43;;
15216;SDS011;7711;46.634;14.318;2022-12-18T13:13:47;24.17;;;16.70;;
15216;SDS011;7711;46.634;14.318;2022-12-18T13:16:17;27.13;;;17.50;;
15216;SDS011;7711;46.634;14.318;2022-12-18T13:18:50;23.53;;;15.63;;
15216;SDS011;7711;46.634;14.318;2022-12-18T13:21:21;24.37;;;16.93;;
15216;SDS011;7711;46.634;14.318;2022-12-18T13:23:50;24.67;;;16.93;;
15216;SDS011;7711;46.634;14.318;2022-12-18T13:26:30;23.17;;;16.77;;
15216;SDS011;7711;46.634;14.318;2022-12-18T13:28:59;23.30;;;16.50;;
15216;SDS011;7711;46.634;14.318;2022-12-18T13:34:35;26.10;;;17.60;;
15216;SDS011;7711;46.634;14.318;2022-12-18T13:43:24;30.77;;;20.07;;
15216;SDS011;7711;46.634;14.318;2022-12-18T13:46:03;32.83;;;24.10;;
15216;SDS011;7711;46.634;14.318;2022-12-18T13:48:34;31.10;;;23.00;;
15216;SDS011;7711;46.634;14.318;2022-12-18T13:51:05;31.90;;;21.77;;
15216;SDS011;7711;46.634;14.318;2022-12-18T13:53:36;26.97;;;19.73;;
15216;SDS011;7711;46.634;14.318;2022-12-18T13:56:08;30.47;;;20.67;;
15216;SDS011;7711;46.634;14.318;2022-12-18T13:58:35;30.63;;;21.37;;
15216;SDS011;7711;46.634;14.318;2022-12-18T14:01:02;28.50;;;19.80;;
15216;SDS011;7711;46.634;14.318;2022-12-18T14:03:29;26.90;;;17.90;;
15216;SDS011;7711;46.634;14.318;2022-12-18T14:06:01;26.23;;;18.77;;
15216;SDS011;7711;46.634;14.318;2022-12-18T14:08:37;30.70;;;21.40;;
15216;SDS011;7711;46.634;14.318;2022-12-18T14:11:06;27.20;;;18.83;;
15216;SDS011;7711;46.634;14.318;2022-12-18T14:13:44;27.63;;;19.30;;
15216;SDS011;7711;46.634;14.318;2022-12-18T14:16:13;27.77;;;19.13;;
15216;SDS011;7711;46.634;14.318;2022-12-18T14:18:43;29.67;;;20.27;;
15216;SDS011;7711;46.634;14.318;2022-12-18T14:21:17;30.13;;;20.17;;
15216;SDS011;7711;46.634;14.318;2022-12-18T14:23:48;30.17;;;20.43;;
15216;SDS011;7711;46.634;14.318;2022-12-18T14:26:20;28.33;;;18.70;;
15216;SDS011;7711;46.634;14.318;2022-12-18T14:28:54;36.20;;;22.23;;
15216;SDS011;7711;46.634;14.318;2022-12-18T14:31:22;35.23;;;23.00;;
15216;SDS011;7711;46.634;14.318;2022-12-18T14:33:50;33.33;;;21.27;;
15216;SDS011;7711;46.634;14.318;2022-12-18T14:36:19;31.60;;;20.37;;
15216;SDS011;7711;46.634;14.318;2022-12-18T14:38:49;29.57;;;20.93;;
15216;SDS011;7711;46.634;14.318;2022-12-18T14:41:18;31.73;;;20.57;;
15216;SDS011;7711;46.634;14.318;2022-12-18T14:43:47;35.47;;;24.27;;
15216;SDS011;7711;46.634;14.318;2022-12-18T14:46:28;42.67;;;28.80;;
15216;SDS011;7711;46.634;14.318;2022-12-18T14:48:59;38.67;;;26.83;;
15216;SDS011;7711;46.634;14.318;2022-12-18T14:51:29;38.97;;;25.67;;
15216;SDS011;7711;46.634;14.318;2022-12-18T14:53:59;35.50;;;24.97;;